This is the latest recevied weather packets stored in our database for station/object WS2Z. If no packets are shown the sender has not sent any weather packets the latest 10 day(s).
| Time | Temp. | Humidity | Pressure | Rain* | Wind** | Luminosity | Snow |
|---|---|---|---|---|---|---|---|
| 1777768696 | 22.22° C | 92% | 1013.7 hPa | 0 mm | - | 0 W/m² | - |
| 1777768393 | 22.22° C | 92% | 1013.8 hPa | 0 mm | - | 0 W/m² | - |
| 1777767787 | 22.22° C | 92% | 1013.9 hPa | 0 mm | - | 0 W/m² | - |
| 1777767483 | 22.22° C | 92% | 1014 hPa | 0 mm | - | 0 W/m² | - |
| 1777766271 | 22.78° C | 90% | 1013.5 hPa | 0 mm | - | 1 W/m² | - |
| 1777765969 | 22.78° C | 89% | 1013.5 hPa | 1.27 mm | - | 2 W/m² | - |
| 1777765665 | 22.78° C | 88% | 1013.2 hPa | 14.99 mm | - | 5 W/m² | - |
| 1777764755 | 26.67° C | 73% | 1013.5 hPa | 0 mm | - | 1 W/m² | - |
| 1777764451 | 27.22° C | 81% | 1012.8 hPa | 0 mm | - | 16 W/m² | - |
| 1777764148 | 27.22° C | 81% | 1012.8 hPa | 0 mm | - | 30 W/m² | - |
| 1777763845 | 27.22° C | 81% | 1012.7 hPa | 0 mm | - | 31 W/m² | - |
| 1777762028 | 27.78° C | 78% | 1012.3 hPa | 0 mm | - | 65 W/m² | - |
| 1777761121 | 28.33° C | 78% | 1012.1 hPa | 0 mm | - | 84 W/m² | - |
| 1777760818 | 28.33° C | 77% | 1012 hPa | 0 mm | - | 83 W/m² | - |
| 1777760514 | 28.89° C | 76% | 1011.9 hPa | 0 mm | - | 97 W/m² | - |
| 1777760210 | 28.89° C | 75% | 1011.9 hPa | 0 mm | - | 138 W/m² | - |
| 1777759603 | 28.89° C | 73% | 1012.1 hPa | 0 mm | - | 205 W/m² | - |
| 1777758391 | 28.89° C | 71% | 1011.8 hPa | 0 mm | - | 91 W/m² | - |
| 1777758088 | 29.44° C | 69% | 1011.7 hPa | 0 mm | - | 65 W/m² | - |
| 1777757785 | 30.56° C | 66% | 1011.7 hPa | 0 mm | - | 129 W/m² | - |
| 1777757482 | 31.11° C | 65% | 1011.6 hPa | 0 mm | - | 251 W/m² | - |
| 1777757181 | 30.56° C | 65% | 1011.4 hPa | 0 mm | - | 353 W/m² | - |
| 1777756879 | 31.11° C | 63% | 1011.8 hPa | 0 mm | - | 379 W/m² | - |
| 1777756574 | 31.11° C | 63% | 1011.6 hPa | 0 mm | - | 290 W/m² | - |
| 1777756272 | 30.56° C | 65% | 1011.5 hPa | 0 mm | - | 449 W/m² | - |
* Rain latest hour (hover to see other rain measurements)
** Current wind speed in m/s (hover to see current wind gust speed)